Time;durP1;ratioP1;P1;durP2;ratioP2;P2;SDS_P1;SDS_P2;PMS_P1;PMS_P2;Temp;Humidity;BMP_temperature;BMP_pressure;BME280_temperature;BME280_humidity;BME280_pressure;Samples;Min_cycle;Max_cycle;Signal;HPM_P1;HPM_P2
2023/10/14 00:01:36;;;;;;;;;;;;;;;20.47;29.08;98360.09;5021577;28;903;-75
2023/10/14 00:04:04;;;;;;;;;;;;;;;20.43;29.26;98367.78;5038118;28;1054;-75
2023/10/14 00:06:32;;;;;;;;;;;;;;;20.35;29.50;98357.81;5037946;28;940;-75
2023/10/14 00:08:57;;;;;;;;;;;;;;;20.60;28.80;98355.41;5003820;28;893;-75
2023/10/14 00:11:32;;;;;;;;;;;;;;;20.43;28.91;98357.28;5003930;28;1226;-75
2023/10/14 00:13:57;;;;;;;;;;;;;;;20.49;28.98;98355.59;5020461;28;950;-75
2023/10/14 00:19:04;;;;;;;;;;;;;;;21.29;27.89;98339.59;5020523;28;1902;-75
2023/10/14 00:21:33;;;;;;;;;;;;;;;21.24;27.78;98337.28;5004785;28;971;-75
2023/10/14 00:24:01;;;;;;;;;;;;;;;21.21;27.83;98326.81;5020083;28;905;-75
2023/10/14 00:26:27;;;;;;;;;;;;;;;20.72;28.87;98334.19;4987940;28;1220;-75
2023/10/14 00:31:38;;;;;;;;;;;;;;;20.60;29.01;98332.00;5019254;28;1241;-75
2023/10/14 00:34:03;;;;;;;;;;;;;;;20.74;28.78;98318.41;5037047;28;906;-75
2023/10/14 00:36:33;;;;;;;;;;;;;;;20.69;28.64;98318.91;5037355;28;1050;-76
2023/10/14 00:39:22;;;;;;;;;;;;;;;20.41;29.10;98308.06;5003554;28;1906;-76
2023/10/14 00:41:52;;;;;;;;;;;;;;;20.09;30.14;98317.84;5006072;28;1230;-74
2023/10/14 00:44:18;;;;;;;;;;;;;;;20.45;29.49;98309.59;5037048;28;946;-75
2023/10/14 00:46:48;;;;;;;;;;;;;;;20.47;29.31;98312.03;5019655;28;870;-74
2023/10/14 00:49:17;;;;;;;;;;;;;;;20.60;29.28;98304.53;5002973;28;1196;-75
2023/10/14 00:51:42;;;;;;;;;;;;;;;20.63;29.36;98303.69;5002899;28;1348;-75
2023/10/14 00:54:11;;;;;;;;;;;;;;;20.52;29.62;98301.03;5003528;28;1405;-75
2023/10/14 00:56:40;;;;;;;;;;;;;;;20.50;30.00;98306.31;5003269;28;1133;-75
2023/10/14 00:59:06;;;;;;;;;;;;;;;20.63;29.51;98295.19;5019689;28;1902;-75
2023/10/14 01:01:32;;;;;;;;;;;;;;;20.58;29.94;98289.25;5019640;28;991;-75
2023/10/14 01:04:17;;;;;;;;;;;;;;;20.67;29.89;98292.28;4998130;28;937;-75
2023/10/14 01:09:33;;;;;;;;;;;;;;;20.48;30.06;98286.16;5000346;28;1127;-74
2023/10/14 01:12:16;;;;;;;;;;;;;;;20.35;30.46;98287.97;4983003;28;985;-75
2023/10/14 01:14:42;;;;;;;;;;;;;;;20.39;30.27;98287.91;4984147;28;1009;-75
2023/10/14 01:17:09;;;;;;;;;;;;;;;20.71;29.97;98284.53;4982299;28;981;-75
2023/10/14 01:19:34;;;;;;;;;;;;;;;20.49;30.34;98292.63;4998032;28;1983;-75
2023/10/14 01:22:00;;;;;;;;;;;;;;;20.58;30.32;98292.88;5014657;28;1104;-75
2023/10/14 01:24:30;;;;;;;;;;;;;;;20.61;30.26;98282.72;4978870;28;1137;-75
2023/10/14 01:27:05;;;;;;;;;;;;;;;20.81;30.02;98281.50;4979178;28;1071;-75
2023/10/14 01:29:31;;;;;;;;;;;;;;;21.25;29.65;98282.28;4932851;28;1570;-75
2023/10/14 01:32:06;;;;;;;;;;;;;;;21.62;28.98;98280.31;4978537;28;1330;-75
2023/10/14 01:34:42;;;;;;;;;;;;;;;20.86;30.18;98282.25;4985203;28;1088;-75
2023/10/14 01:37:16;;;;;;;;;;;;;;;20.83;30.24;98280.28;4998092;28;1061;-75
2023/10/14 01:39:48;;;;;;;;;;;;;;;20.87;30.10;98278.19;4997932;28;1906;-75
2023/10/14 01:42:15;;;;;;;;;;;;;;;20.81;30.11;98275.84;4981553;28;1240;-76
2023/10/14 01:44:41;;;;;;;;;;;;;;;21.00;30.03;98281.97;4981531;28;1254;-75
2023/10/14 01:47:07;;;;;;;;;;;;;;;20.53;30.59;98273.56;4981534;28;1532;-75
2023/10/14 01:49:36;;;;;;;;;;;;;;;20.71;30.40;98273.22;4997906;28;1035;-75
2023/10/14 01:52:05;;;;;;;;;;;;;;;20.39;31.14;98270.97;4981686;28;1255;-76
2023/10/14 01:54:31;;;;;;;;;;;;;;;20.71;30.65;98261.91;4981516;28;1468;-75
2023/10/14 01:56:59;;;;;;;;;;;;;;;20.77;30.81;98263.00;4981583;28;1234;-75
2023/10/14 01:59:27;;;;;;;;;;;;;;;20.81;30.73;98264.53;4981796;28;1973;-75
2023/10/14 02:01:57;;;;;;;;;;;;;;;20.45;31.07;98274.88;4992084;28;1097;-75
2023/10/14 02:04:23;;;;;;;;;;;;;;;20.45;31.40;98269.22;5018913;28;1019;-75
2023/10/14 02:07:02;;;;;;;;;;;;;;;20.76;30.98;98267.06;5018474;28;1123;-75
2023/10/14 02:09:30;;;;;;;;;;;;;;;20.52;31.17;98269.13;5004476;28;1336;-74
2023/10/14 02:11:56;;;;;;;;;;;;;;;20.68;30.87;98271.28;5002165;28;1088;-75
2023/10/14 02:14:22;;;;;;;;;;;;;;;20.61;31.02;98263.72;5002042;28;1155;-75
2023/10/14 02:16:48;;;;;;;;;;;;;;;20.51;31.24;98281.66;5001837;28;1238;-75
2023/10/14 02:22:00;;;;;;;;;;;;;;;20.67;30.83;98269.66;5036068;28;1102;-76
2023/10/14 02:24:27;;;;;;;;;;;;;;;20.52;31.17;98269.94;5018243;28;1082;-75
2023/10/14 02:26:54;;;;;;;;;;;;;;;20.65;30.72;98267.28;5002127;28;1103;-76
2023/10/14 02:29:19;;;;;;;;;;;;;;;20.60;31.26;98272.63;5001892;28;1209;-75
2023/10/14 02:31:45;;;;;;;;;;;;;;;20.65;31.09;98267.28;5018487;28;880;-75
2023/10/14 02:34:14;;;;;;;;;;;;;;;20.60;31.05;98264.94;5017598;28;1079;-75
2023/10/14 02:36:50;;;;;;;;;;;;;;;20.77;30.82;98263.00;5018471;28;1428;-75
2023/10/14 02:39:16;;;;;;;;;;;;;;;20.28;31.46;98271.94;4986391;28;1906;-76
2023/10/14 02:41:58;;;;;;;;;;;;;;;20.52;31.18;98269.13;4985811;28;1143;-75
2023/10/14 02:44:43;;;;;;;;;;;;;;;20.29;31.62;98273.53;5003570;28;908;-76
2023/10/14 02:47:09;;;;;;;;;;;;;;;20.46;31.40;98260.34;5002630;28;1101;-76
2023/10/14 02:49:39;;;;;;;;;;;;;;;20.39;31.59;98259.66;5016244;28;1308;-76
2023/10/14 02:52:11;;;;;;;;;;;;;;;20.68;30.98;98260.78;5001072;28;1033;-75
2023/10/14 02:54:40;;;;;;;;;;;;;;;20.38;31.48;98263.72;5019685;28;978;-76
2023/10/14 02:57:27;;;;;;;;;;;;;;;20.66;30.80;98254.72;5036916;28;986;-75
2023/10/14 02:59:52;;;;;;;;;;;;;;;20.38;31.41;98258.06;5006098;28;1981;-76
2023/10/14 03:07:27;;;;;;;;;;;;;;;20.51;31.08;98256.22;5004191;28;1213;-76
2023/10/14 03:09:53;;;;;;;;;;;;;;;20.31;31.65;98261.78;5005424;28;1213;-75
2023/10/14 03:12:21;;;;;;;;;;;;;;;20.48;31.03;98257.91;5020131;28;1099;-76
2023/10/14 03:14:48;;;;;;;;;;;;;;;20.42;31.26;98255.97;5003918;28;1317;-75
2023/10/14 03:22:57;;;;;;;;;;;;;;;20.73;30.69;98248.16;4920103;29;1102;-76
2023/10/14 03:25:23;;;;;;;;;;;;;;;20.47;31.19;98256.31;4920215;29;980;-76
2023/10/14 03:27:57;;;;;;;;;;;;;;;20.74;30.68;98244.91;4919744;29;932;-76
2023/10/14 03:30:23;;;;;;;;;;;;;;;20.55;31.13;98251.31;4919158;29;1144;-76
2023/10/14 03:32:48;;;;;;;;;;;;;;;20.55;31.03;98245.66;4919111;29;1460;-76
2023/10/14 03:35:20;;;;;;;;;;;;;;;20.71;30.70;98254.22;4903586;29;1690;-76
2023/10/14 03:37:53;;;;;;;;;;;;;;;20.63;31.21;98252.78;4918868;29;1200;-76
2023/10/14 03:43:10;;;;;;;;;;;;;;;20.80;30.62;98257.28;4868651;29;1211;-75
2023/10/14 03:45:45;;;;;;;;;;;;;;;20.65;31.06;98253.16;4851604;29;1401;-76
2023/10/14 03:48:13;;;;;;;;;;;;;;;20.70;30.98;98247.00;4881249;29;947;-76
2023/10/14 03:50:39;;;;;;;;;;;;;;;20.51;31.11;98239.25;4866082;29;991;-77
2023/10/14 03:53:05;;;;;;;;;;;;;;;20.73;30.61;98243.31;4866113;29;1070;-75
2023/10/14 03:55:31;;;;;;;;;;;;;;;20.68;30.64;98243.00;4881903;29;1080;-74
2023/10/14 03:58:03;;;;;;;;;;;;;;;20.64;30.79;98242.28;4897749;29;1173;-76
2023/10/14 04:00:38;;;;;;;;;;;;;;;20.99;30.21;98237.97;4943744;28;1914;-75
2023/10/14 04:03:11;;;;;;;;;;;;;;;20.74;30.54;98235.63;4960413;28;1017;-75
2023/10/14 04:05:38;;;;;;;;;;;;;;;20.64;30.78;98236.63;4975725;28;976;-75
2023/10/14 04:08:05;;;;;;;;;;;;;;;20.76;30.60;98236.75;4960656;28;1074;-75
2023/10/14 04:10:35;;;;;;;;;;;;;;;20.54;31.07;98238.41;4980791;28;907;-75
2023/10/14 04:13:04;;;;;;;;;;;;;;;20.74;30.76;98236.41;4979711;28;895;-75
2023/10/14 04:17:55;;;;;;;;;;;;;;;20.60;30.83;98231.03;4995905;28;989;-75
2023/10/14 04:20:32;;;;;;;;;;;;;;;20.67;30.93;98242.19;4963397;28;1975;-75
2023/10/14 04:22:58;;;;;;;;;;;;;;;20.96;30.18;98241.66;4996014;28;803;-75
2023/10/14 04:30:42;;;;;;;;;;;;;;;20.49;31.42;98250.22;4996096;28;977;-76
2023/10/14 04:35:58;;;;;;;;;;;;;;;20.61;31.10;98255.22;4995469;28;1066;-77
2023/10/14 04:38:37;;;;;;;;;;;;;;;20.69;31.22;98255.91;4995393;28;1060;-75
2023/10/14 04:41:03;;;;;;;;;;;;;;;20.68;31.21;98255.13;5026577;28;1977;-76
2023/10/14 04:45:54;;;;;;;;;;;;;;;21.00;30.46;98265.00;5018251;28;1042;-76
2023/10/14 04:51:00;;;;;;;;;;;;;;;20.79;30.89;98261.38;4995373;28;928;-76
2023/10/14 04:53:31;;;;;;;;;;;;;;;20.83;31.06;98260.47;4995117;28;1250;-76
2023/10/14 04:56:01;;;;;;;;;;;;;;;21.04;30.50;98257.25;4995432;28;863;-76
2023/10/14 04:58:26;;;;;;;;;;;;;;;20.64;31.06;98251.56;4956192;29;973;-75
2023/10/14 05:00:52;;;;;;;;;;;;;;;20.93;30.63;98265.13;4924451;29;1966;-75
2023/10/14 05:03:19;;;;;;;;;;;;;;;20.49;31.35;98270.00;4924407;29;1054;-76
2023/10/14 05:05:58;;;;;;;;;;;;;;;20.87;31.05;98261.22;4940596;29;898;-76
2023/10/14 05:08:24;;;;;;;;;;;;;;;20.43;31.43;98268.88;4926086;29;1341;-76
2023/10/14 05:10:50;;;;;;;;;;;;;;;20.60;31.24;98267.78;4940922;29;1007;-76
2023/10/14 05:13:15;;;;;;;;;;;;;;;20.58;31.24;98273.06;4940338;29;1000;-76
2023/10/14 05:15:42;;;;;;;;;;;;;;;20.71;31.39;98265.53;4940289;28;1551;-76
2023/10/14 05:18:14;;;;;;;;;;;;;;;20.91;30.87;98264.78;4955965;28;920;-76
2023/10/14 05:23:24;;;;;;;;;;;;;;;20.61;31.29;98272.19;4994889;28;990;-75
2023/10/14 05:25:56;;;;;;;;;;;;;;;20.73;31.26;98271.59;4994944;28;977;-75
2023/10/14 05:28:26;;;;;;;;;;;;;;;20.89;31.04;98258.78;4975049;28;934;-75
2023/10/14 05:30:55;;;;;;;;;;;;;;;20.76;31.39;98261.41;4974984;28;1094;-75
2023/10/14 05:33:21;;;;;;;;;;;;;;;20.99;31.01;98263.41;4975323;28;998;-76
2023/10/14 05:35:48;;;;;;;;;;;;;;;20.97;31.10;98265.88;4968210;28;1231;-76
2023/10/14 05:38:14;;;;;;;;;;;;;;;20.76;31.56;98267.88;4978612;28;1106;-75
2023/10/14 05:40:40;;;;;;;;;;;;;;;20.94;31.25;98261.88;4936608;29;1978;-76
2023/10/14 05:43:08;;;;;;;;;;;;;;;20.89;31.33;98275.75;4952698;28;954;-76
2023/10/14 05:45:37;;;;;;;;;;;;;;;20.88;31.39;98274.94;4952132;28;977;-75
2023/10/14 05:48:03;;;;;;;;;;;;;;;20.74;31.39;98273.19;4952498;28;889;-75
2023/10/14 05:50:29;;;;;;;;;;;;;;;20.92;31.16;98274.84;4920756;29;1314;-75
2023/10/14 05:52:55;;;;;;;;;;;;;;;21.01;31.06;98278.72;4936363;29;997;-76
2023/10/14 05:55:20;;;;;;;;;;;;;;;20.84;31.52;98279.06;4936776;29;917;-76
2023/10/14 05:57:47;;;;;;;;;;;;;;;21.07;31.04;98279.00;4952293;28;1018;-76
2023/10/14 06:00:22;;;;;;;;;;;;;;;20.80;31.44;98285.56;4951898;28;1973;-75
2023/10/14 06:02:48;;;;;;;;;;;;;;;20.95;31.29;98276.81;4935320;29;1057;-75
2023/10/14 06:05:16;;;;;;;;;;;;;;;20.80;31.65;98274.25;4948424;28;1045;-75
2023/10/14 06:07:46;;;;;;;;;;;;;;;21.06;31.00;98278.19;4958809;28;1046;-76
2023/10/14 06:10:12;;;;;;;;;;;;;;;21.17;31.01;98275.16;4974756;28;916;-76
2023/10/14 06:12:39;;;;;;;;;;;;;;;21.14;30.88;98269.56;5014364;28;923;-76
2023/10/14 06:15:09;;;;;;;;;;;;;;;21.06;31.27;98280.22;5017998;28;1046;-75
2023/10/14 06:17:38;;;;;;;;;;;;;;;20.87;31.55;98275.34;5003036;28;995;-75
2023/10/14 06:20:13;;;;;;;;;;;;;;;20.82;31.63;98259.69;5001960;28;1919;-75
2023/10/14 06:22:45;;;;;;;;;;;;;;;20.92;31.64;98263.53;4977871;28;981;-75
2023/10/14 06:25:16;;;;;;;;;;;;;;;20.86;31.61;98276.59;4961933;28;1219;-75
2023/10/14 06:27:45;;;;;;;;;;;;;;;20.79;31.69;98278.34;4994058;28;876;-75
2023/10/14 06:30:19;;;;;;;;;;;;;;;20.96;31.41;98276.38;4997577;28;1107;-76
2023/10/14 06:32:58;;;;;;;;;;;;;;;20.75;32.08;98271.94;4966293;28;1199;-76
2023/10/14 06:35:26;;;;;;;;;;;;;;;20.76;32.01;98267.88;4965806;28;1212;-76
2023/10/14 06:37:53;;;;;;;;;;;;;;;20.96;31.78;98282.03;4966060;28;975;-75
2023/10/14 06:40:19;;;;;;;;;;;;;;;21.09;31.62;98282.22;4965821;28;1918;-75
2023/10/14 06:42:53;;;;;;;;;;;;;;;20.92;31.93;98277.69;4965423;28;949;-76
2023/10/14 06:45:21;;;;;;;;;;;;;;;20.96;31.59;98282.03;4997693;28;912;-76
2023/10/14 06:47:56;;;;;;;;;;;;;;;20.80;31.90;98279.91;4961919;28;1110;-75
2023/10/14 06:50:25;;;;;;;;;;;;;;;21.04;31.47;98279.88;4958636;28;953;-75
2023/10/14 06:52:53;;;;;;;;;;;;;;;20.63;31.71;98230.16;4950934;28;1465;-76
2023/10/14 06:55:22;;;;;;;;;;;;;;;21.21;31.31;98280.75;4965851;28;976;-76
2023/10/14 06:57:53;;;;;;;;;;;;;;;20.89;31.80;98281.41;4981778;28;930;-76
2023/10/14 07:00:30;;;;;;;;;;;;;;;21.01;31.76;98278.72;4997249;28;1989;-76
2023/10/14 07:02:57;;;;;;;;;;;;;;;20.91;32.14;98278.91;4981004;28;965;-76
2023/10/14 07:05:23;;;;;;;;;;;;;;;21.00;31.80;98281.97;4980949;28;1061;-75
2023/10/14 07:07:49;;;;;;;;;;;;;;;21.17;31.64;98283.66;4942145;29;1015;-76
2023/10/14 07:10:15;;;;;;;;;;;;;;;21.04;31.65;98282.72;4958205;29;1142;-76
2023/10/14 07:12:41;;;;;;;;;;;;;;;21.24;31.54;98280.69;4942246;29;923;-75
2023/10/14 07:15:12;;;;;;;;;;;;;;;21.18;31.46;98279.56;4958460;29;964;-76
2023/10/14 07:17:39;;;;;;;;;;;;;;;21.00;31.83;98287.63;4957968;28;945;-77
2023/10/14 07:20:07;;;;;;;;;;;;;;;21.25;31.45;98279.44;4942638;28;1903;-77
2023/10/14 07:22:32;;;;;;;;;;;;;;;21.25;31.25;98279.44;4961542;28;1317;-76
2023/10/14 07:24:58;;;;;;;;;;;;;;;20.84;32.13;98279.06;4977393;28;1223;-76
2023/10/14 07:27:24;;;;;;;;;;;;;;;20.98;32.16;98284.44;4977405;28;966;-76
2023/10/14 07:29:49;;;;;;;;;;;;;;;21.08;31.94;98274.94;4961667;28;978;-76
2023/10/14 07:32:19;;;;;;;;;;;;;;;21.16;31.80;98273.56;4977144;28;1079;-76
2023/10/14 07:34:44;;;;;;;;;;;;;;;21.00;32.14;98273.50;4945946;28;1156;-76
2023/10/14 07:37:13;;;;;;;;;;;;;;;20.85;32.05;98269.34;4977324;28;1086;-76
2023/10/14 07:39:38;;;;;;;;;;;;;;;20.86;32.20;98265.28;5026932;28;1898;-76
2023/10/14 07:42:11;;;;;;;;;;;;;;;21.02;31.88;98268.19;5019248;28;1013;-76
2023/10/14 07:44:37;;;;;;;;;;;;;;;21.07;31.99;98271.31;5020054;28;885;-76
2023/10/14 07:47:05;;;;;;;;;;;;;;;20.82;32.17;98271.00;4998771;28;1116;-77
2023/10/14 07:49:33;;;;;;;;;;;;;;;20.95;32.20;98262.69;4999621;28;1235;-76
2023/10/14 07:52:00;;;;;;;;;;;;;;;21.03;32.09;98269.78;5015540;28;1296;-76
2023/10/14 07:54:29;;;;;;;;;;;;;;;20.77;32.47;98269.47;5015623;28;716;-76
2023/10/14 07:56:55;;;;;;;;;;;;;;;20.94;31.98;98267.53;4956871;29;1236;-76
2023/10/14 07:59:20;;;;;;;;;;;;;;;21.10;31.87;98268.84;4956972;29;1952;-76
2023/10/14 08:01:47;;;;;;;;;;;;;;;20.95;32.14;98262.69;4941144;29;1068;-76
2023/10/14 08:04:14;;;;;;;;;;;;;;;21.16;31.82;98273.56;4956815;29;772;-76
2023/10/14 08:06:40;;;;;;;;;;;;;;;21.00;32.04;98262.19;4953208;29;924;-76
2023/10/14 08:09:15;;;;;;;;;;;;;;;21.05;32.07;98258.84;4953566;29;804;-76
2023/10/14 08:11:40;;;;;;;;;;;;;;;20.59;32.35;98217.34;4937750;29;965;-77
2023/10/14 08:14:06;;;;;;;;;;;;;;;21.08;32.03;98266.44;4953453;29;780;-76
2023/10/14 08:16:31;;;;;;;;;;;;;;;21.18;31.60;98259.78;4931832;29;921;-75
2023/10/14 08:18:57;;;;;;;;;;;;;;;21.12;31.62;98255.06;4935249;29;926;-75
2023/10/14 08:21:22;;;;;;;;;;;;;;;21.07;31.87;98256.38;4937281;29;1988;-76
2023/10/14 08:23:48;;;;;;;;;;;;;;;20.94;32.24;98253.41;4937063;29;820;-76
2023/10/14 08:26:14;;;;;;;;;;;;;;;20.86;32.38;98259.63;4937622;29;863;-76
2023/10/14 08:28:39;;;;;;;;;;;;;;;21.22;31.61;98260.50;4984281;28;901;-76
2023/10/14 08:31:07;;;;;;;;;;;;;;;20.98;32.04;98256.13;4979121;28;1362;-76
2023/10/14 08:33:33;;;;;;;;;;;;;;;20.94;32.24;98253.41;4979077;28;743;-76
2023/10/14 08:35:58;;;;;;;;;;;;;;;21.16;31.83;98248.09;4995397;28;1256;-76
2023/10/14 08:38:27;;;;;;;;;;;;;;;21.31;31.51;98252.25;4995191;28;794;-76
2023/10/14 08:40:53;;;;;;;;;;;;;;;20.84;32.35;98260.06;4978601;28;1985;-76
2023/10/14 08:43:19;;;;;;;;;;;;;;;20.90;32.39;98249.03;5002375;28;920;-76
2023/10/14 08:45:48;;;;;;;;;;;;;;;21.10;31.99;98252.69;5019096;28;751;-76
2023/10/14 08:48:23;;;;;;;;;;;;;;;21.28;31.55;98255.91;5020040;28;751;-75
2023/10/14 08:50:49;;;;;;;;;;;;;;;21.02;32.22;98248.38;5018030;28;1223;-76
2023/10/14 08:53:14;;;;;;;;;;;;;;;21.03;31.96;98247.94;4986248;28;823;-76
2023/10/14 08:55:40;;;;;;;;;;;;;;;21.03;32.14;98244.31;5019296;28;980;-75
2023/10/14 08:58:06;;;;;;;;;;;;;;;21.09;32.15;98245.44;5002401;28;1232;-76
2023/10/14 09:00:36;;;;;;;;;;;;;;;21.04;31.96;98235.41;5002140;28;1965;-76
2023/10/14 09:03:02;;;;;;;;;;;;;;;21.20;31.71;98233.88;5019055;28;688;-76
2023/10/14 09:05:30;;;;;;;;;;;;;;;21.24;31.65;98243.91;5018918;28;790;-76
2023/10/14 09:07:55;;;;;;;;;;;;;;;21.00;32.00;98237.50;5014090;28;1123;-76
2023/10/14 09:10:24;;;;;;;;;;;;;;;21.10;32.17;98235.69;4997421;28;880;-75
2023/10/14 09:12:53;;;;;;;;;;;;;;;21.39;31.66;98223.78;4997338;28;931;-76
2023/10/14 09:15:21;;;;;;;;;;;;;;;21.42;31.49;98234.25;4997959;28;1115;-76
2023/10/14 09:17:46;;;;;;;;;;;;;;;20.97;32.33;98235.53;4997869;28;758;-76
2023/10/14 09:20:26;;;;;;;;;;;;;;;21.05;32.12;98233.38;4997507;28;1902;-76
2023/10/14 09:22:52;;;;;;;;;;;;;;;21.08;32.19;98241.78;4981443;28;901;-75
2023/10/14 09:25:17;;;;;;;;;;;;;;;21.48;31.54;98221.16;4994841;28;1246;-76
2023/10/14 09:27:48;;;;;;;;;;;;;;;21.51;31.43;98225.94;5013670;28;827;-76
2023/10/14 09:30:18;;;;;;;;;;;;;;;20.95;32.27;98223.88;4981297;28;1321;-76
2023/10/14 09:32:43;;;;;;;;;;;;;;;21.27;32.00;98217.53;4997590;28;904;-76
2023/10/14 09:35:09;;;;;;;;;;;;;;;21.11;32.26;98209.00;4997871;28;783;-76
2023/10/14 09:37:35;;;;;;;;;;;;;;;21.05;32.30;98210.75;4996979;28;1258;-77
2023/10/14 09:40:06;;;;;;;;;;;;;;;21.08;32.39;98204.19;5016842;28;1987;-76
2023/10/14 09:42:31;;;;;;;;;;;;;;;21.00;32.41;98202.78;5002310;28;768;-76
2023/10/14 09:44:57;;;;;;;;;;;;;;;21.24;32.11;98207.09;5018429;28;843;-76
2023/10/14 09:47:23;;;;;;;;;;;;;;;21.41;31.56;98198.69;5001818;28;1139;-76
2023/10/14 09:49:48;;;;;;;;;;;;;;;21.31;31.84;98201.31;5017905;28;1080;-76
2023/10/14 09:52:14;;;;;;;;;;;;;;;21.50;31.47;98196.03;5035886;28;924;-76
2023/10/14 09:54:41;;;;;;;;;;;;;;;21.24;31.78;98187.28;4993399;28;846;-76
2023/10/14 09:57:10;;;;;;;;;;;;;;;21.29;31.63;98181.09;4993892;28;831;-76
2023/10/14 09:59:35;;;;;;;;;;;;;;;21.08;31.97;98184.41;4977619;28;2039;-76
2023/10/14 10:02:01;;;;;;;;;;;;;;;21.20;31.97;98174.47;4961646;28;787;-75
2023/10/14 10:04:28;;;;;;;;;;;;;;;21.25;31.78;98180.41;4981688;28;1217;-76
2023/10/14 10:07:01;;;;;;;;;;;;;;;21.41;31.45;98176.03;4981523;28;855;-76
2023/10/14 10:09:30;;;;;;;;;;;;;;;21.38;31.81;98171.25;4981438;28;818;-76
2023/10/14 10:11:55;;;;;;;;;;;;;;;21.24;31.84;98156.16;4981646;28;851;-76
2023/10/14 10:14:22;;;;;;;;;;;;;;;21.28;31.77;98156.06;4997779;28;1242;-76
2023/10/14 10:16:50;;;;;;;;;;;;;;;21.21;32.14;98161.91;4977584;28;1429;-76
2023/10/14 10:19:16;;;;;;;;;;;;;;;21.14;32.04;98151.53;4978603;28;1903;-76
2023/10/14 10:22:02;;;;;;;;;;;;;;;21.10;32.34;98148.00;4978960;28;993;-76
2023/10/14 10:24:34;;;;;;;;;;;;;;;21.05;31.96;98143.66;4978732;28;1102;-75
2023/10/14 10:27:03;;;;;;;;;;;;;;;21.08;31.63;98141.97;5018933;28;1424;-75
2023/10/14 10:29:28;;;;;;;;;;;;;;;21.22;31.71;98141.63;5018762;28;1321;-75
2023/10/14 10:32:11;;;;;;;;;;;;;;;21.09;31.87;98132.25;5018288;28;1446;-75
2023/10/14 10:35:02;;;;;;;;;;;;;;;21.10;31.72;98136.69;5018385;28;914;-75
2023/10/14 10:37:28;;;;;;;;;;;;;;;20.93;31.89;98123.69;5018441;28;1571;-76
2023/10/14 10:39:53;;;;;;;;;;;;;;;20.99;31.82;98119.16;5018320;28;1906;-77
2023/10/14 10:42:19;;;;;;;;;;;;;;;21.28;31.11;98111.56;5002216;28;974;-76
2023/10/14 10:44:45;;;;;;;;;;;;;;;20.99;31.43;98111.44;5018818;28;959;-76
2023/10/14 10:47:12;;;;;;;;;;;;;;;21.29;31.15;98110.34;5018226;28;1142;-77
2023/10/14 10:49:58;;;;;;;;;;;;;;;21.33;30.86;98113.91;5001924;28;1104;-76
2023/10/14 10:52:25;;;;;;;;;;;;;;;21.18;31.11;98106.97;5018513;28;980;-76
2023/10/14 10:54:51;;;;;;;;;;;;;;;21.13;31.19;98101.81;5018376;28;1118;-77
2023/10/14 10:57:16;;;;;;;;;;;;;;;21.33;30.74;98108.25;4997094;28;1019;-76
2023/10/14 10:59:42;;;;;;;;;;;;;;;21.16;30.87;98106.63;4997329;28;1914;-77
2023/10/14 11:02:08;;;;;;;;;;;;;;;21.25;30.68;98092.66;4997437;28;1000;-77
2023/10/14 11:04:34;;;;;;;;;;;;;;;21.15;30.98;98093.72;4997599;28;953;-77
2023/10/14 11:07:00;;;;;;;;;;;;;;;20.92;31.48;98094.63;4997097;28;987;-76
2023/10/14 11:09:27;;;;;;;;;;;;;;;21.08;30.87;98091.81;4996963;28;1295;-76
2023/10/14 11:12:00;;;;;;;;;;;;;;;20.96;31.16;98083.25;4997491;28;1220;-76
2023/10/14 11:14:26;;;;;;;;;;;;;;;21.10;30.90;98088.56;4996531;28;937;-76
2023/10/14 11:16:54;;;;;;;;;;;;;;;21.15;30.61;98085.22;4996904;28;936;-76
2023/10/14 11:19:20;;;;;;;;;;;;;;;21.20;30.79;98086.75;4997177;28;1902;-76
2023/10/14 11:21:49;;;;;;;;;;;;;;;21.08;30.69;98074.06;4997062;28;958;-76
2023/10/14 11:24:15;;;;;;;;;;;;;;;21.10;30.71;98080.09;4996805;28;976;-76
2023/10/14 11:26:44;;;;;;;;;;;;;;;20.93;31.22;98067.13;4996806;28;1001;-76
2023/10/14 11:29:10;;;;;;;;;;;;;;;21.30;30.29;98069.53;5014723;28;955;-76
2023/10/14 11:31:36;;;;;;;;;;;;;;;21.38;30.30;98069.34;5017855;28;981;-76
2023/10/14 11:34:02;;;;;;;;;;;;;;;21.42;30.26;98072.88;5017888;28;925;-76
2023/10/14 11:36:27;;;;;;;;;;;;;;;20.77;31.30;98068.69;5017648;28;1319;-76
2023/10/14 11:38:58;;;;;;;;;;;;;;;21.13;30.60;98059.38;5018557;28;1088;-76
2023/10/14 11:41:26;;;;;;;;;;;;;;;21.25;30.12;98067.19;5018494;28;1903;-75
2023/10/14 11:43:52;;;;;;;;;;;;;;;21.32;30.28;98049.28;5001016;28;1079;-77
2023/10/14 11:46:17;;;;;;;;;;;;;;;20.95;30.75;98056.19;5018415;28;986;-77
2023/10/14 11:48:46;;;;;;;;;;;;;;;20.82;31.16;98039.09;5018412;28;958;-76
2023/10/14 11:51:15;;;;;;;;;;;;;;;20.72;31.05;98046.59;5000723;28;956;-77
2023/10/14 11:53:44;;;;;;;;;;;;;;;20.87;31.14;98037.78;5017170;28;1508;-77
2023/10/14 11:56:18;;;;;;;;;;;;;;;20.94;30.83;98046.13;5017084;28;929;-76
2023/10/14 11:58:45;;;;;;;;;;;;;;;21.26;30.23;98040.47;5017288;28;916;-76
2023/10/14 12:01:10;;;;;;;;;;;;;;;21.21;30.50;98035.34;5017302;28;1906;-76
2023/10/14 12:03:39;;;;;;;;;;;;;;;21.26;30.13;98034.81;5017021;28;945;-76
2023/10/14 12:06:07;;;;;;;;;;;;;;;20.86;30.87;98027.72;4995783;28;926;-77
2023/10/14 12:08:36;;;;;;;;;;;;;;;21.08;30.61;98031.63;4980096;28;947;-76
2023/10/14 12:11:03;;;;;;;;;;;;;;;21.06;30.58;98031.28;4979869;28;949;-77
2023/10/14 12:13:29;;;;;;;;;;;;;;;21.14;30.38;98032.72;4980008;28;1418;-74
2023/10/14 12:15:54;;;;;;;;;;;;;;;21.02;30.49;98030.56;4979602;28;1018;-75
2023/10/14 12:18:20;;;;;;;;;;;;;;;21.29;30.20;98025.44;4979413;28;1022;-74
2023/10/14 12:20:46;;;;;;;;;;;;;;;21.01;30.36;98026.94;4979415;28;1907;-73
2023/10/14 12:23:13;;;;;;;;;;;;;;;21.12;30.45;98012.53;4995851;28;956;-75
2023/10/14 12:25:39;;;;;;;;;;;;;;;20.99;30.67;98014.47;4979197;28;976;-74
2023/10/14 12:28:04;;;;;;;;;;;;;;;21.13;30.34;98014.13;4963238;28;1167;-74
2023/10/14 12:30:51;;;;;;;;;;;;;;;21.12;30.52;98012.53;4979634;28;955;-74
2023/10/14 12:33:22;;;;;;;;;;;;;;;20.77;31.08;98009.31;4981617;28;1063;-74
2023/10/14 12:35:53;;;;;;;;;;;;;;;20.98;30.53;98012.88;4995203;28;1152;-73
2023/10/14 12:38:20;;;;;;;;;;;;;;;20.96;30.46;98002.00;4999459;28;1216;-74
2023/10/14 12:40:49;;;;;;;;;;;;;;;21.23;30.09;97995.28;4998784;28;1969;-74
2023/10/14 12:43:27;;;;;;;;;;;;;;;21.21;30.27;98000.59;4998873;28;1171;-74
2023/10/14 12:45:59;;;;;;;;;;;;;;;20.89;30.63;98004.22;5000151;28;989;-74
2023/10/14 12:48:25;;;;;;;;;;;;;;;20.65;31.28;97995.88;5014665;28;1035;-74
2023/10/14 12:50:51;;;;;;;;;;;;;;;21.07;30.36;97996.09;4998831;28;1011;-74
2023/10/14 12:53:16;;;;;;;;;;;;;;;21.03;30.38;97992.53;4998427;28;985;-74
2023/10/14 12:55:44;;;;;;;;;;;;;;;20.89;30.99;97988.03;4998829;28;894;-74
2023/10/14 12:58:12;;;;;;;;;;;;;;;21.06;30.47;97986.00;5014734;28;1311;-74
2023/10/14 13:00:37;;;;;;;;;;;;;;;20.95;30.73;97982.66;4998495;28;1977;-73
2023/10/14 13:03:09;;;;;;;;;;;;;;;21.14;30.26;97976.13;4998199;28;1038;-74
2023/10/14 13:05:35;;;;;;;;;;;;;;;20.98;30.46;97981.75;4975345;28;986;-74
2023/10/14 13:08:00;;;;;;;;;;;;;;;21.04;30.23;97968.69;4975730;28;979;-75
2023/10/14 13:10:27;;;;;;;;;;;;;;;20.92;30.74;97975.03;4975279;28;998;-73
2023/10/14 13:12:53;;;;;;;;;;;;;;;21.00;30.26;97967.97;4975673;28;1022;-74
2023/10/14 13:15:31;;;;;;;;;;;;;;;21.03;30.28;97970.69;4959381;28;1257;-73
2023/10/14 13:17:57;;;;;;;;;;;;;;;21.00;30.30;97965.16;4975484;28;1040;-75
2023/10/14 13:20:45;;;;;;;;;;;;;;;20.88;30.92;97961.00;4975415;28;1902;-74
2023/10/14 13:23:12;;;;;;;;;;;;;;;20.89;30.75;97964.63;4975144;28;995;-74
2023/10/14 13:25:37;;;;;;;;;;;;;;;20.89;30.84;97964.63;4975468;28;976;-74
2023/10/14 13:28:09;;;;;;;;;;;;;;;21.10;30.26;97958.44;4975394;28;892;-74
2023/10/14 13:30:35;;;;;;;;;;;;;;;20.84;30.80;97957.47;4975072;28;1038;-74
2023/10/14 13:33:01;;;;;;;;;;;;;;;20.87;30.67;97955.78;4975274;28;988;-74
2023/10/14 13:35:27;;;;;;;;;;;;;;;20.98;30.37;97951.44;4955575;29;1059;-74
2023/10/14 13:37:54;;;;;;;;;;;;;;;20.95;30.79;97954.38;4955392;28;973;-74
2023/10/14 13:40:23;;;;;;;;;;;;;;;20.97;30.27;97951.88;4955309;29;1919;-74
2023/10/14 13:42:50;;;;;;;;;;;;;;;20.79;30.88;97943.84;4968724;28;1160;-74
2023/10/14 13:45:16;;;;;;;;;;;;;;;20.90;30.57;97943.59;4978409;28;1081;-74
2023/10/14 13:47:42;;;;;;;;;;;;;;;20.71;30.63;97943.22;4978648;28;1145;-74
2023/10/14 13:50:10;;;;;;;;;;;;;;;20.84;30.72;97951.00;4974991;28;943;-74